Sedro Woolley, Washington
Current Conditions -  °F | °C
As of 7:55 PM on Friday 28 Nov 2014 (Local Time) from KBVS Reporting Station
Overcast Overcast  
Wind Chill: 31°   Ceiling: 6000
Heat Index: 37°   Visibility: 10mi
Dew Point: 37°   Wind: 9mph
Humidity: 100%   Direction: 170°S
Pressure: 29.5"   Gusts: NA
Location:  48.54°N, 122.19°W
Report Text: KBVS 290355Z AUTO 17008KT 10SM SCT036 BKN060 OVC075 03/03 A2950 RMK A01 P000
Loading
Personal Weather Stations






























Interactive Weather Map New forecast layout! Learn more

10-Day Weather Forecast

Advertisements
Track Severe Weather on mobile